sensor_id;sensor_type;location;lat;lon;timestamp;P1;durP1;ratioP1;P2;durP2;ratioP2
45940;SDS011;31858;46.008;8.978;2022-07-29T00:07:43;1.73;;;1.10;;
45940;SDS011;31858;46.008;8.978;2022-07-29T00:17:46;2.03;;;1.25;;
45940;SDS011;31858;46.008;8.978;2022-07-29T00:27:47;1.85;;;1.60;;
45940;SDS011;31858;46.008;8.978;2022-07-29T00:37:50;3.28;;;1.33;;
45940;SDS011;31858;46.008;8.978;2022-07-29T00:47:52;2.60;;;1.30;;
45940;SDS011;31858;46.008;8.978;2022-07-29T00:57:55;3.40;;;1.90;;
45940;SDS011;31858;46.008;8.978;2022-07-29T01:07:59;2.00;;;1.63;;
45940;SDS011;31858;46.008;8.978;2022-07-29T01:18:04;1.63;;;1.40;;
45940;SDS011;31858;46.008;8.978;2022-07-29T01:38:39;3.17;;;1.35;;
45940;SDS011;31858;46.008;8.978;2022-07-29T01:48:45;2.38;;;1.40;;
45940;SDS011;31858;46.008;8.978;2022-07-29T01:58:49;1.77;;;1.30;;
45940;SDS011;31858;46.008;8.978;2022-07-29T02:08:54;7.75;;;1.35;;
45940;SDS011;31858;46.008;8.978;2022-07-29T02:19:00;2.33;;;1.48;;
45940;SDS011;31858;46.008;8.978;2022-07-29T02:29:05;5.38;;;1.38;;
45940;SDS011;31858;46.008;8.978;2022-07-29T02:39:09;7.85;;;1.50;;
45940;SDS011;31858;46.008;8.978;2022-07-29T02:49:15;2.45;;;1.48;;
45940;SDS011;31858;46.008;8.978;2022-07-29T02:59:20;0.93;;;0.93;;
45940;SDS011;31858;46.008;8.978;2022-07-29T03:09:28;2.45;;;1.50;;
45940;SDS011;31858;46.008;8.978;2022-07-29T03:19:31;2.10;;;1.50;;
45940;SDS011;31858;46.008;8.978;2022-07-29T03:29:36;1.35;;;1.25;;
45940;SDS011;31858;46.008;8.978;2022-07-29T03:39:38;2.33;;;1.30;;
45940;SDS011;31858;46.008;8.978;2022-07-29T03:49:44;3.72;;;1.40;;
45940;SDS011;31858;46.008;8.978;2022-07-29T03:59:49;1.90;;;1.45;;
45940;SDS011;31858;46.008;8.978;2022-07-29T04:09:53;2.05;;;1.30;;
45940;SDS011;31858;46.008;8.978;2022-07-29T04:19:55;2.17;;;1.38;;
45940;SDS011;31858;46.008;8.978;2022-07-29T04:29:58;3.22;;;1.40;;
45940;SDS011;31858;46.008;8.978;2022-07-29T04:40:00;2.88;;;1.25;;
45940;SDS011;31858;46.008;8.978;2022-07-29T04:50:03;1.77;;;1.10;;
45940;SDS011;31858;46.008;8.978;2022-07-29T05:00:07;1.88;;;1.50;;
45940;SDS011;31858;46.008;8.978;2022-07-29T05:10:11;4.95;;;1.65;;
45940;SDS011;31858;46.008;8.978;2022-07-29T05:20:13;2.65;;;1.35;;
45940;SDS011;31858;46.008;8.978;2022-07-29T05:30:16;1.95;;;1.30;;
45940;SDS011;31858;46.008;8.978;2022-07-29T05:40:18;4.57;;;1.40;;
45940;SDS011;31858;46.008;8.978;2022-07-29T05:50:21;2.05;;;1.40;;
45940;SDS011;31858;46.008;8.978;2022-07-29T06:00:23;2.03;;;1.30;;
45940;SDS011;31858;46.008;8.978;2022-07-29T06:10:26;2.25;;;1.50;;
45940;SDS011;31858;46.008;8.978;2022-07-29T06:20:28;1.48;;;1.33;;
45940;SDS011;31858;46.008;8.978;2022-07-29T06:30:31;1.63;;;1.50;;
45940;SDS011;31858;46.008;8.978;2022-07-29T06:40:33;2.95;;;1.35;;
45940;SDS011;31858;46.008;8.978;2022-07-29T06:50:54;1.60;;;1.50;;
45940;SDS011;31858;46.008;8.978;2022-07-29T07:00:56;1.42;;;1.33;;
45940;SDS011;31858;46.008;8.978;2022-07-29T07:11:00;2.28;;;1.63;;
45940;SDS011;31858;46.008;8.978;2022-07-29T07:21:02;1.73;;;1.60;;
45940;SDS011;31858;46.008;8.978;2022-07-29T07:31:06;6.53;;;1.48;;
45940;SDS011;31858;46.008;8.978;2022-07-29T07:41:08;1.67;;;1.58;;
45940;SDS011;31858;46.008;8.978;2022-07-29T07:51:11;2.90;;;1.50;;
45940;SDS011;31858;46.008;8.978;2022-07-29T08:01:12;1.33;;;1.23;;
45940;SDS011;31858;46.008;8.978;2022-07-29T08:11:16;1.98;;;1.55;;
45940;SDS011;31858;46.008;8.978;2022-07-29T08:21:18;1.80;;;1.70;;
45940;SDS011;31858;46.008;8.978;2022-07-29T08:31:21;5.22;;;1.67;;
45940;SDS011;31858;46.008;8.978;2022-07-29T08:41:22;3.80;;;1.95;;
45940;SDS011;31858;46.008;8.978;2022-07-29T08:51:26;2.83;;;2.00;;
45940;SDS011;31858;46.008;8.978;2022-07-29T09:01:29;3.40;;;1.90;;
45940;SDS011;31858;46.008;8.978;2022-07-29T09:11:34;2.28;;;1.67;;
45940;SDS011;31858;46.008;8.978;2022-07-29T09:21:40;3.42;;;1.80;;
45940;SDS011;31858;46.008;8.978;2022-07-29T09:32:01;2.97;;;1.63;;
45940;SDS011;31858;46.008;8.978;2022-07-29T09:42:07;3.67;;;1.75;;
45940;SDS011;31858;46.008;8.978;2022-07-29T09:52:10;1.80;;;1.70;;
45940;SDS011;31858;46.008;8.978;2022-07-29T10:02:12;1.60;;;1.50;;
45940;SDS011;31858;46.008;8.978;2022-07-29T10:12:16;1.98;;;1.88;;
45940;SDS011;31858;46.008;8.978;2022-07-29T10:22:17;6.97;;;2.00;;
45940;SDS011;31858;46.008;8.978;2022-07-29T10:32:24;2.20;;;1.85;;
45940;SDS011;31858;46.008;8.978;2022-07-29T10:42:36;4.47;;;2.10;;
45940;SDS011;31858;46.008;8.978;2022-07-29T10:52:55;5.57;;;2.20;;
45940;SDS011;31858;46.008;8.978;2022-07-29T11:02:58;2.10;;;1.95;;
45940;SDS011;31858;46.008;8.978;2022-07-29T11:13:02;2.22;;;2.10;;
45940;SDS011;31858;46.008;8.978;2022-07-29T11:23:20;5.35;;;2.38;;
45940;SDS011;31858;46.008;8.978;2022-07-29T11:33:33;3.17;;;2.40;;
45940;SDS011;31858;46.008;8.978;2022-07-29T11:43:47;3.15;;;1.73;;
45940;SDS011;31858;46.008;8.978;2022-07-29T11:53:50;3.85;;;2.60;;
45940;SDS011;31858;46.008;8.978;2022-07-29T12:04:01;2.50;;;2.30;;
45940;SDS011;31858;46.008;8.978;2022-07-29T12:14:05;2.30;;;2.10;;
45940;SDS011;31858;46.008;8.978;2022-07-29T12:24:06;2.13;;;2.03;;
45940;SDS011;31858;46.008;8.978;2022-07-29T12:34:09;2.38;;;2.17;;
45940;SDS011;31858;46.008;8.978;2022-07-29T12:44:12;2.70;;;2.50;;
45940;SDS011;31858;46.008;8.978;2022-07-29T12:54:16;2.58;;;2.38;;
45940;SDS011;31858;46.008;8.978;2022-07-29T13:04:25;3.78;;;2.42;;
45940;SDS011;31858;46.008;8.978;2022-07-29T13:14:32;3.30;;;2.50;;
45940;SDS011;31858;46.008;8.978;2022-07-29T13:24:46;2.70;;;2.50;;
45940;SDS011;31858;46.008;8.978;2022-07-29T13:34:50;2.38;;;2.20;;
45940;SDS011;31858;46.008;8.978;2022-07-29T13:44:52;2.10;;;2.00;;
45940;SDS011;31858;46.008;8.978;2022-07-29T13:54:55;3.95;;;2.13;;
45940;SDS011;31858;46.008;8.978;2022-07-29T14:04:57;2.58;;;2.30;;
45940;SDS011;31858;46.008;8.978;2022-07-29T14:15:00;3.30;;;2.85;;
45940;SDS011;31858;46.008;8.978;2022-07-29T14:25:02;3.40;;;2.95;;
45940;SDS011;31858;46.008;8.978;2022-07-29T14:35:05;3.85;;;3.28;;
45940;SDS011;31858;46.008;8.978;2022-07-29T14:45:09;4.32;;;3.50;;
45940;SDS011;31858;46.008;8.978;2022-07-29T14:55:12;14.57;;;4.65;;
45940;SDS011;31858;46.008;8.978;2022-07-29T15:05:14;6.18;;;4.00;;
45940;SDS011;31858;46.008;8.978;2022-07-29T15:15:17;4.30;;;3.60;;
45940;SDS011;31858;46.008;8.978;2022-07-29T15:25:18;4.18;;;3.78;;
45940;SDS011;31858;46.008;8.978;2022-07-29T15:35:21;4.20;;;3.80;;
45940;SDS011;31858;46.008;8.978;2022-07-29T15:45:23;5.10;;;3.63;;
45940;SDS011;31858;46.008;8.978;2022-07-29T15:55:26;4.70;;;4.22;;
45940;SDS011;31858;46.008;8.978;2022-07-29T16:05:28;8.23;;;3.92;;
45940;SDS011;31858;46.008;8.978;2022-07-29T16:15:31;3.75;;;3.38;;
45940;SDS011;31858;46.008;8.978;2022-07-29T16:25:33;4.18;;;2.70;;
45940;SDS011;31858;46.008;8.978;2022-07-29T16:35:36;3.05;;;2.60;;
45940;SDS011;31858;46.008;8.978;2022-07-29T16:45:39;2.70;;;2.45;;
45940;SDS011;31858;46.008;8.978;2022-07-29T16:55:42;4.88;;;2.55;;
45940;SDS011;31858;46.008;8.978;2022-07-29T17:05:43;6.10;;;3.38;;
45940;SDS011;31858;46.008;8.978;2022-07-29T17:15:46;3.42;;;3.10;;
45940;SDS011;31858;46.008;8.978;2022-07-29T17:25:48;3.25;;;2.75;;
45940;SDS011;31858;46.008;8.978;2022-07-29T17:35:51;2.72;;;2.53;;
45940;SDS011;31858;46.008;8.978;2022-07-29T17:46:10;4.50;;;3.10;;
45940;SDS011;31858;46.008;8.978;2022-07-29T17:56:13;3.60;;;3.30;;
45940;SDS011;31858;46.008;8.978;2022-07-29T18:06:15;4.18;;;3.75;;
45940;SDS011;31858;46.008;8.978;2022-07-29T18:16:18;2.90;;;2.70;;
45940;SDS011;31858;46.008;8.978;2022-07-29T18:26:20;3.88;;;3.08;;
45940;SDS011;31858;46.008;8.978;2022-07-29T18:36:23;2.38;;;2.17;;
45940;SDS011;31858;46.008;8.978;2022-07-29T18:46:25;2.80;;;2.22;;
45940;SDS011;31858;46.008;8.978;2022-07-29T18:56:28;2.33;;;2.13;;
45940;SDS011;31858;46.008;8.978;2022-07-29T19:06:30;2.90;;;2.58;;
45940;SDS011;31858;46.008;8.978;2022-07-29T19:16:33;2.92;;;2.20;;
45940;SDS011;31858;46.008;8.978;2022-07-29T19:26:34;2.20;;;2.10;;
45940;SDS011;31858;46.008;8.978;2022-07-29T19:36:42;2.33;;;2.13;;
45940;SDS011;31858;46.008;8.978;2022-07-29T19:46:44;2.15;;;1.98;;
45940;SDS011;31858;46.008;8.978;2022-07-29T19:56:47;3.67;;;1.83;;
45940;SDS011;31858;46.008;8.978;2022-07-29T20:06:48;2.38;;;2.17;;
45940;SDS011;31858;46.008;8.978;2022-07-29T20:16:53;2.60;;;2.40;;
45940;SDS011;31858;46.008;8.978;2022-07-29T20:26:55;2.60;;;2.40;;
45940;SDS011;31858;46.008;8.978;2022-07-29T20:36:58;7.22;;;2.42;;
45940;SDS011;31858;46.008;8.978;2022-07-29T20:47:00;2.28;;;1.90;;
45940;SDS011;31858;46.008;8.978;2022-07-29T20:57:03;3.60;;;2.20;;
45940;SDS011;31858;46.008;8.978;2022-07-29T21:07:05;4.38;;;2.22;;
45940;SDS011;31858;46.008;8.978;2022-07-29T21:17:08;2.70;;;2.00;;
45940;SDS011;31858;46.008;8.978;2022-07-29T21:27:10;2.03;;;1.83;;
45940;SDS011;31858;46.008;8.978;2022-07-29T21:37:30;3.30;;;2.00;;
45940;SDS011;31858;46.008;8.978;2022-07-29T21:47:32;2.00;;;1.73;;
45940;SDS011;31858;46.008;8.978;2022-07-29T21:57:35;3.00;;;2.00;;
45940;SDS011;31858;46.008;8.978;2022-07-29T22:07:36;5.45;;;2.13;;
45940;SDS011;31858;46.008;8.978;2022-07-29T22:17:39;1.70;;;1.60;;
45940;SDS011;31858;46.008;8.978;2022-07-29T22:27:41;2.22;;;1.92;;
45940;SDS011;31858;46.008;8.978;2022-07-29T22:37:44;4.43;;;2.47;;
45940;SDS011;31858;46.008;8.978;2022-07-29T22:47:46;3.53;;;1.77;;
45940;SDS011;31858;46.008;8.978;2022-07-29T22:57:49;1.98;;;1.80;;
45940;SDS011;31858;46.008;8.978;2022-07-29T23:07:50;5.43;;;4.18;;
45940;SDS011;31858;46.008;8.978;2022-07-29T23:17:54;3.72;;;1.60;;
45940;SDS011;31858;46.008;8.978;2022-07-29T23:27:55;3.88;;;1.50;;
45940;SDS011;31858;46.008;8.978;2022-07-29T23:37:58;2.38;;;1.75;;
45940;SDS011;31858;46.008;8.978;2022-07-29T23:48:00;1.52;;;1.38;;
45940;SDS011;31858;46.008;8.978;2022-07-29T23:58:03;2.35;;;1.90;;
